createdAt,value
2022-10-07T00:01:47.919Z,88.40
2022-10-07T00:07:19.635Z,88.19
2022-10-07T00:12:51.134Z,88.60
2022-10-07T00:18:24.964Z,88.55
2022-10-07T00:23:56.799Z,88.73
2022-10-07T00:29:28.525Z,88.88
2022-10-07T00:35:00.276Z,88.80
2022-10-07T00:40:31.857Z,88.93
2022-10-07T00:46:03.702Z,88.81
2022-10-07T00:51:35.140Z,88.99
2022-10-07T00:57:06.598Z,89.42
2022-10-07T01:02:38.583Z,89.32
2022-10-07T01:08:10.096Z,89.41
2022-10-07T01:13:41.841Z,89.20
2022-10-07T01:19:13.362Z,89.22
2022-10-07T01:24:45.051Z,89.38
2022-10-07T01:30:16.840Z,89.36
2022-10-07T01:35:49.643Z,89.10
2022-10-07T01:41:21.520Z,89.63
2022-10-07T01:46:53.302Z,89.26
2022-10-07T01:52:25.247Z,88.97
2022-10-07T01:57:56.914Z,88.77
2022-10-07T02:03:28.768Z,88.52
2022-10-07T02:09:00.349Z,88.78
2022-10-07T02:14:32.177Z,88.67
2022-10-07T02:20:03.815Z,88.36
2022-10-07T02:25:35.913Z,88.76
2022-10-07T02:31:07.560Z,88.28
2022-10-07T02:36:39.361Z,88.19
2022-10-07T02:42:11.189Z,88.45
2022-10-07T02:47:43.175Z,88.27
2022-10-07T02:53:14.492Z,88.71
2022-10-07T02:58:46.377Z,88.81
2022-10-07T03:04:18.142Z,88.45
2022-10-07T03:09:50.056Z,88.81
2022-10-07T03:15:21.920Z,89.25
2022-10-07T03:20:53.742Z,88.89
2022-10-07T03:26:25.554Z,88.67
2022-10-07T03:34:19.239Z,88.78
2022-10-07T03:39:52.178Z,89.09
2022-10-07T03:45:24.045Z,89.21
2022-10-07T03:50:55.924Z,89.64
2022-10-07T03:56:29.610Z,89.67
2022-10-07T04:02:01.438Z,89.86
2022-10-07T04:07:33.026Z,89.60
2022-10-07T04:18:38.117Z,89.30
2022-10-07T04:24:09.990Z,89.66
2022-10-07T04:29:41.721Z,89.40
2022-10-07T04:35:13.093Z,89.29
2022-10-07T04:40:44.441Z,88.56
2022-10-07T04:46:16.263Z,88.83
2022-10-07T04:51:47.889Z,88.94
2022-10-07T04:57:19.606Z,88.87
2022-10-07T05:02:50.986Z,89.26
2022-10-07T05:08:22.976Z,89.17
2022-10-07T05:13:54.668Z,89.02
2022-10-07T05:19:26.252Z,89.21
2022-10-07T05:24:57.881Z,89.28
2022-10-07T05:30:29.797Z,89.35
2022-10-07T05:36:01.350Z,89.58
2022-10-07T05:41:36.101Z,89.89
2022-10-07T05:47:04.854Z,89.56
2022-10-07T05:52:36.574Z,89.72
2022-10-07T05:58:07.926Z,89.83
2022-10-07T06:03:39.699Z,89.17
2022-10-07T06:09:11.301Z,89.15
2022-10-07T06:14:42.606Z,89.32
2022-10-07T06:20:13.932Z,89.63
2022-10-07T06:25:48.797Z,90.01
2022-10-07T06:31:20.446Z,89.62
2022-10-07T06:36:52.189Z,89.56
2022-10-07T06:42:23.549Z,89.46
2022-10-07T06:47:55.272Z,89.22
2022-10-07T06:53:26.938Z,89.39
2022-10-07T06:58:58.349Z,89.02
2022-10-07T07:04:29.674Z,88.57
2022-10-07T07:10:01.086Z,88.32
2022-10-07T07:15:32.886Z,87.68
2022-10-07T07:21:04.945Z,86.70
2022-10-07T07:26:36.408Z,85.91
2022-10-07T07:32:08.619Z,85.07
2022-10-07T07:40:00.478Z,84.00
2022-10-07T07:45:31.454Z,83.00
2022-10-07T07:51:02.892Z,82.74
2022-10-07T07:56:34.680Z,83.16
2022-10-07T08:02:06.724Z,81.63
2022-10-07T08:07:38.463Z,82.42
2022-10-07T08:13:10.210Z,82.17
2022-10-07T08:18:41.716Z,81.27
2022-10-07T08:24:12.832Z,80.58
2022-10-07T08:29:44.343Z,79.88
2022-10-07T08:35:16.410Z,79.19
2022-10-07T08:40:48.842Z,79.04
2022-10-07T08:46:20.308Z,78.14
2022-10-07T08:51:52.035Z,78.50
2022-10-07T08:57:23.474Z,78.37
2022-10-07T09:02:55.310Z,78.31
2022-10-07T09:08:26.687Z,77.06
2022-10-07T09:13:58.220Z,76.39
2022-10-07T09:19:29.671Z,76.11
2022-10-07T09:25:01.151Z,74.73
2022-10-07T09:36:02.439Z,76.21
2022-10-07T09:41:34.174Z,74.98
2022-10-07T09:52:35.667Z,72.95
2022-10-07T10:03:36.962Z,72.07
2022-10-07T10:09:08.620Z,70.22
2022-10-07T10:14:40.467Z,70.43
2022-10-07T10:20:12.225Z,70.65
2022-10-07T10:28:03.797Z,72.10
2022-10-07T10:33:34.636Z,71.01
2022-10-07T10:39:05.999Z,70.72
2022-10-07T10:44:37.858Z,70.33
2022-10-07T10:50:09.644Z,71.20
2022-10-07T11:01:12.827Z,70.49
2022-10-07T11:06:44.766Z,70.55
2022-10-07T11:12:16.471Z,70.42
2022-10-07T11:17:48.206Z,71.69
2022-10-07T11:23:19.594Z,71.03
2022-10-07T11:28:52.774Z,71.41
2022-10-07T11:34:24.142Z,70.80
2022-10-07T11:39:55.652Z,70.54
2022-10-07T11:45:27.502Z,70.88
2022-10-07T11:50:59.344Z,70.67
2022-10-07T11:56:31.153Z,71.72
2022-10-07T12:02:03.021Z,70.72
2022-10-07T12:13:04.699Z,70.58
2022-10-07T12:18:36.518Z,70.44
2022-10-07T12:24:08.353Z,71.48
2022-10-07T12:29:40.125Z,70.66
2022-10-07T12:35:11.957Z,70.33
2022-10-07T12:40:44.160Z,70.14
2022-10-07T12:46:16.254Z,70.07
2022-10-07T12:51:47.699Z,70.57
2022-10-07T13:02:49.573Z,69.56
2022-10-07T13:10:40.607Z,69.68
2022-10-07T13:16:12.042Z,68.43
2022-10-07T13:21:43.721Z,68.13
2022-10-07T13:27:15.723Z,69.22
2022-10-07T13:32:47.503Z,67.90
2022-10-07T13:38:19.103Z,68.98
2022-10-07T13:43:51.108Z,70.74
2022-10-07T13:49:22.724Z,69.65
2022-10-07T13:54:54.327Z,70.65
2022-10-07T14:00:26.285Z,69.72
2022-10-07T14:16:57.047Z,69.26
2022-10-07T14:22:28.629Z,69.20
2022-10-07T14:28:00.446Z,69.28
2022-10-07T14:33:31.991Z,69.08
2022-10-07T14:41:23.742Z,69.61
2022-10-07T14:46:55.534Z,70.45
2022-10-07T14:52:27.184Z,70.25
2022-10-07T15:03:28.605Z,72.98
2022-10-07T15:09:00.588Z,72.93
2022-10-07T15:14:32.063Z,72.88
2022-10-07T15:20:03.686Z,73.60
2022-10-07T15:25:35.462Z,73.81
2022-10-07T15:31:07.152Z,75.32
2022-10-07T15:36:38.803Z,74.93
2022-10-07T15:42:12.382Z,75.81
2022-10-07T15:52:27.188Z,76.24
2022-10-07T16:19:56.544Z,81.19
2022-10-07T16:38:51.800Z,81.65
2022-10-07T16:44:23.595Z,82.61
2022-10-07T16:52:17.330Z,83.05
2022-10-07T17:03:18.501Z,83.55
2022-10-07T17:08:50.480Z,83.08
2022-10-07T17:14:22.313Z,85.49
2022-10-07T17:19:54.073Z,84.96
2022-10-07T17:27:48.144Z,84.45
2022-10-07T17:33:19.779Z,85.34
2022-10-07T17:38:51.751Z,84.70
2022-10-07T17:52:14.346Z,84.23
2022-10-07T17:57:46.002Z,84.17
2022-10-07T18:19:45.958Z,85.01
2022-10-07T18:30:46.803Z,85.73
2022-10-07T18:36:18.135Z,85.80
2022-10-07T18:41:49.423Z,85.77
2022-10-07T18:47:20.906Z,86.24
2022-10-07T18:52:52.750Z,87.10
2022-10-07T18:58:24.438Z,86.96
2022-10-07T19:03:55.995Z,86.79
2022-10-07T19:09:27.452Z,86.89
2022-10-07T19:14:59.058Z,86.71
2022-10-07T19:20:30.953Z,87.03
2022-10-07T19:26:02.863Z,87.15
2022-10-07T19:31:34.772Z,87.27
2022-10-07T19:37:06.376Z,87.28
2022-10-07T19:44:59.961Z,87.03
2022-10-07T19:50:31.275Z,87.64
2022-10-07T19:56:02.762Z,87.95
2022-10-07T20:01:34.446Z,87.94
2022-10-07T20:12:35.322Z,89.10
2022-10-07T20:18:07.197Z,89.66
2022-10-07T20:23:39.001Z,90.05
2022-10-07T20:29:10.777Z,89.61
2022-10-07T20:40:12.068Z,89.32
2022-10-07T20:45:43.870Z,89.44
2022-10-07T20:51:15.633Z,89.07
2022-10-07T20:56:47.616Z,89.62
2022-10-07T21:02:19.714Z,89.25
2022-10-07T21:07:54.665Z,89.21
2022-10-07T21:13:23.379Z,88.99
2022-10-07T21:18:55.319Z,89.18
2022-10-07T21:24:26.902Z,89.65
2022-10-07T21:29:58.603Z,89.70
2022-10-07T21:35:30.186Z,89.50
2022-10-07T21:41:01.828Z,90.13
2022-10-07T21:46:33.763Z,90.53
2022-10-07T21:52:05.314Z,89.60
2022-10-07T22:03:05.978Z,89.57
2022-10-07T22:08:37.522Z,89.24
2022-10-07T22:14:12.536Z,89.39
2022-10-07T22:19:41.152Z,89.80
2022-10-07T22:25:12.821Z,89.86
2022-10-07T22:30:44.662Z,89.85
2022-10-07T22:36:16.394Z,89.65
2022-10-07T22:41:48.177Z,89.40
2022-10-07T22:47:19.911Z,89.66
2022-10-07T22:58:20.868Z,89.42
2022-10-07T23:03:52.919Z,90.00
2022-10-07T23:09:24.637Z,90.56
2022-10-07T23:14:56.318Z,90.33
2022-10-07T23:20:28.023Z,90.38
2022-10-07T23:25:59.428Z,90.66
2022-10-07T23:31:31.245Z,90.72
2022-10-07T23:37:03.003Z,90.85
2022-10-07T23:42:34.736Z,90.47
2022-10-07T23:48:06.473Z,90.37
2022-10-07T23:53:38.117Z,90.54
2022-10-07T23:59:09.855Z,90.51
